KACK/ACK METAR and TAF weather

Enter ICAO airport designator
Station Type Date Time Source
KACK METAR 2021/06/24 06:53 UTC NOAA

KACK 240653Z 20006KT 10SM CLR 14/12 A3035 RMK AO2 SLP278 T01440117


Station Type Date Time Source
KACK Decoded METAR 2021/06/24 06:53 UTC NOAA

NANTUCKET MEMORIAL AIRPORT, MA, United States (KACK) 41-15N 70-04W 16M
Jun 24, 2021 - 02:53 AM EDT / 2021.06.24 0653 UTC
Wind: from the SSW (200 degrees) at 7 MPH (6 KT):0
Visibility: 10 mile(s):0
Sky conditions: clear
Temperature: 57.9 F (14.4 C)
Dew Point: 53.1 F (11.7 C)
Relative Humidity: 83%
Pressure (altimeter): 30.35 in. Hg (1027 hPa)
ob: KACK 240653Z 20006KT 10SM CLR 14/12 A3035 RMK AO2 SLP278 T01440117
cycle: 7

Station Type Date Time Source
KACK TAF 2021/06/24 06:27 UTC NOAA

TAF KACK 240525Z 2406/2506 20004KT P6SM SKC
FM240800 09006KT P6SM SKC
FM241500 10011KT P6SM SKC
FM250100 10011KT P6SM VCSH BKN035
FM250300 10011KT P6SM VCSH OVC020
FM250500 10010KT P6SM VCSH OVC010

Example: see airport list